createdAt,value
2018-07-12T04:50:47.317Z,26.58
2018-07-12T04:51:54.179Z,26.71
2018-07-12T04:52:58.357Z,26.85
2018-07-12T04:54:02.562Z,27.02
2018-07-12T04:55:07.725Z,27.16
2018-07-12T04:56:12.944Z,27.26
2018-07-12T04:57:17.163Z,27.39
2018-07-12T04:58:21.517Z,27.52
2018-07-12T04:59:26.584Z,27.63
2018-07-12T05:00:31.381Z,27.74
2018-07-12T05:01:37.658Z,27.88
2018-07-12T05:02:42.508Z,28.03
2018-07-12T05:03:47.509Z,28.15
2018-07-12T05:04:51.836Z,28.24
2018-07-12T05:05:56.046Z,28.32
2018-07-12T05:07:00.192Z,28.39
2018-07-12T05:08:05.404Z,28.50
2018-07-12T05:09:11.425Z,28.60
2018-07-12T05:10:15.559Z,28.72
2018-07-12T05:11:20.010Z,28.84
2018-07-12T05:12:24.183Z,28.98
2018-07-12T05:13:28.379Z,29.15
2018-07-12T05:14:32.634Z,29.28
2018-07-12T05:15:37.035Z,29.41
2018-07-12T05:16:41.223Z,29.55
2018-07-12T05:17:45.864Z,29.70
2018-07-12T05:18:50.244Z,29.85
2018-07-12T05:19:54.562Z,29.98
2018-07-12T05:20:59.064Z,30.12
2018-07-12T05:22:03.556Z,30.26
2018-07-12T05:23:07.830Z,30.37
2018-07-12T05:24:12.087Z,30.39
2018-07-12T05:25:16.433Z,30.51
2018-07-12T05:26:21.035Z,30.46
2018-07-12T05:27:25.307Z,30.37
2018-07-12T05:28:29.946Z,30.39
2018-07-12T05:29:38.288Z,30.48
2018-07-12T05:30:42.627Z,30.63
2018-07-12T05:31:49.045Z,30.74
2018-07-12T05:32:53.524Z,30.80
2018-07-12T05:33:58.889Z,30.88
2018-07-12T05:35:04.817Z,30.88
2018-07-12T05:36:20.660Z,30.82
2018-07-12T05:37:27.020Z,30.89
2018-07-12T05:38:33.754Z,31.00
2018-07-12T05:39:39.877Z,31.15
2018-07-12T05:40:47.898Z,31.31
2018-07-12T05:41:54.736Z,31.43
2018-07-12T05:43:02.039Z,31.55
2018-07-12T05:44:08.358Z,31.63
2018-07-12T05:45:14.554Z,31.69
2018-07-12T05:46:22.445Z,31.81
2018-07-12T05:47:31.495Z,31.95
2018-07-12T05:48:37.867Z,32.06
2018-07-12T05:49:44.188Z,32.14
2018-07-12T05:50:51.277Z,32.22
2018-07-12T05:51:58.527Z,32.32
2018-07-12T05:53:04.895Z,32.44
2018-07-12T05:54:11.971Z,32.55
2018-07-12T05:55:18.967Z,32.66
2018-07-12T05:56:26.444Z,32.75
2018-07-12T05:57:32.847Z,32.81
2018-07-12T05:58:39.212Z,32.88
2018-07-12T05:59:45.473Z,32.99
2018-07-12T06:00:52.368Z,33.05
2018-07-12T06:02:10.545Z,33.15
2018-07-12T06:03:16.769Z,33.24
2018-07-12T06:04:23.663Z,33.28
2018-07-12T06:05:30.429Z,33.28
2018-07-12T06:06:40.186Z,33.24
2018-07-12T06:07:46.477Z,33.25
2018-07-12T06:08:52.666Z,33.25
2018-07-12T06:10:00.709Z,33.29
2018-07-12T06:11:09.020Z,33.34
2018-07-12T06:12:15.120Z,33.26
2018-07-12T06:13:22.222Z,33.26
2018-07-12T06:14:29.325Z,33.25
2018-07-12T06:15:36.802Z,33.35
2018-07-12T06:16:44.269Z,33.42
2018-07-12T06:17:50.374Z,33.38
2018-07-12T06:18:58.304Z,33.28
2018-07-12T06:20:11.059Z,33.19
2018-07-12T06:21:18.956Z,33.26
2018-07-12T06:22:26.828Z,33.14
2018-07-12T06:23:34.696Z,32.98
2018-07-12T06:24:41.989Z,32.85
2018-07-12T06:25:48.933Z,32.61
2018-07-12T06:26:55.263Z,32.46
2018-07-12T06:28:03.284Z,32.62
2018-07-12T06:29:09.553Z,32.53
2018-07-12T06:30:16.961Z,32.62
2018-07-12T06:31:23.652Z,32.78
2018-07-12T06:32:29.989Z,32.79
2018-07-12T06:33:37.854Z,32.79
2018-07-12T06:34:46.753Z,32.95
2018-07-12T06:35:54.446Z,33.07
2018-07-12T06:37:01.965Z,33.13
2018-07-12T06:38:09.795Z,33.31
2018-07-12T06:39:17.175Z,33.53
2018-07-12T06:40:24.805Z,33.79
2018-07-12T06:41:30.991Z,33.99
2018-07-12T06:42:42.909Z,33.97
2018-07-12T07:20:37.122Z,32.91
2018-07-12T07:21:48.480Z,33.20
2018-07-12T07:22:59.701Z,33.26
2018-07-12T07:24:11.326Z,33.12
2018-07-12T07:25:22.542Z,33.15
2018-07-12T07:26:33.928Z,33.49
2018-07-12T07:27:46.234Z,33.91
2018-07-12T07:28:57.880Z,34.32
2018-07-12T07:30:09.345Z,34.64
2018-07-12T07:31:20.466Z,34.86
2018-07-12T07:32:34.956Z,35.03
2018-07-12T07:33:46.578Z,35.18
2018-07-12T07:34:59.500Z,35.06
2018-07-12T07:36:10.576Z,35.23
2018-07-12T07:37:22.666Z,35.42
2018-07-12T07:38:34.271Z,35.55
2018-07-12T07:39:46.066Z,35.74
2018-07-12T07:40:58.144Z,35.96
2018-07-12T07:42:10.298Z,36.20
2018-07-12T07:43:21.831Z,36.42
2018-07-12T07:44:33.140Z,36.62
2018-07-12T07:45:46.364Z,36.74
2018-07-12T07:46:58.558Z,36.86
2018-07-12T07:48:09.705Z,37.00
2018-07-12T07:49:21.142Z,37.17
2018-07-12T07:50:36.396Z,37.32
2018-07-12T07:51:47.698Z,37.53
2018-07-12T07:52:59.222Z,37.72
2018-07-12T07:54:11.638Z,37.89
2018-07-12T07:55:23.022Z,38.05
2018-07-12T07:56:37.495Z,38.10
2018-07-12T07:57:48.940Z,38.13
2018-07-12T07:59:00.200Z,38.13
2018-07-12T08:00:11.464Z,38.22
2018-07-12T08:01:24.303Z,38.28
2018-07-12T08:02:35.722Z,38.29
2018-07-12T08:03:47.409Z,38.32
2018-07-12T08:04:58.818Z,38.28
2018-07-12T08:06:11.226Z,38.29
2018-07-12T08:07:22.528Z,38.35
2018-07-12T08:08:34.458Z,38.39
2018-07-12T08:09:45.699Z,38.47
2018-07-12T08:10:57.926Z,38.41
2018-07-12T08:12:10.608Z,38.37
2018-07-12T08:13:23.495Z,38.36
2018-07-12T08:14:29.490Z,38.39
2018-07-12T08:15:35.558Z,38.40
2018-07-12T08:16:42.568Z,38.43
2018-07-12T08:17:48.740Z,38.50
2018-07-12T08:18:54.882Z,38.61
2018-07-12T08:20:00.898Z,38.72
2018-07-12T08:21:12.395Z,38.92
2018-07-12T08:22:18.654Z,39.14
2018-07-12T08:23:24.935Z,39.35
2018-07-12T08:24:31.092Z,39.62
2018-07-12T08:25:37.404Z,39.85
2018-07-12T08:26:43.670Z,40.06
2018-07-12T08:28:01.176Z,39.86
2018-07-12T08:29:07.495Z,39.68
2018-07-12T08:30:13.734Z,39.80
2018-07-12T08:31:19.944Z,39.89
2018-07-12T08:32:26.259Z,40.04
2018-07-12T08:33:32.432Z,40.17
2018-07-12T08:34:38.600Z,40.28
2018-07-12T08:35:44.759Z,40.42
2018-07-12T08:36:50.872Z,40.64
2018-07-12T08:37:57.903Z,40.87
2018-07-12T08:39:05.830Z,41.10
2018-07-12T08:40:14.869Z,41.33
2018-07-12T08:41:20.957Z,41.46
2018-07-12T08:42:29.030Z,41.45
2018-07-12T08:43:36.203Z,41.56
2018-07-12T08:44:42.199Z,41.57
2018-07-12T08:45:48.369Z,41.70
2018-07-12T08:46:54.541Z,41.89
2018-07-12T08:48:00.689Z,42.06
2018-07-12T08:49:07.580Z,42.07
2018-07-12T08:50:13.839Z,41.49
2018-07-12T08:51:20.917Z,40.80
2018-07-12T08:52:27.837Z,40.11
2018-07-12T08:53:37.435Z,39.47
2018-07-12T08:54:43.720Z,38.84
2018-07-12T08:55:49.977Z,38.31
2018-07-12T08:56:56.107Z,37.95
2018-07-12T08:58:03.009Z,38.20
2018-07-12T08:59:09.225Z,38.37
2018-07-12T09:00:16.391Z,38.63
2018-07-12T09:01:23.387Z,38.32
2018-07-12T09:02:29.781Z,37.90
2018-07-12T09:03:36.135Z,37.51
2018-07-12T09:04:42.201Z,37.19
2018-07-12T09:05:49.697Z,36.92
2018-07-12T09:06:55.772Z,36.65
2018-07-12T09:08:01.902Z,36.44
2018-07-12T09:09:09.633Z,36.25
2018-07-12T09:10:16.380Z,36.14
2018-07-12T09:11:22.621Z,36.05
2018-07-12T09:12:28.755Z,35.88
2018-07-12T09:13:34.797Z,35.76
2018-07-12T09:14:41.085Z,35.89
2018-07-12T09:15:47.742Z,36.48
2018-07-12T09:16:54.019Z,36.56
2018-07-12T09:18:02.152Z,36.39
2018-07-12T09:19:08.415Z,36.12
2018-07-12T09:20:15.602Z,35.83
2018-07-12T09:21:23.492Z,35.58
2018-07-12T09:22:30.772Z,35.33
2018-07-12T09:23:37.881Z,35.12
2018-07-12T09:24:44.034Z,34.91
2018-07-12T09:25:50.140Z,34.73
2018-07-12T09:26:58.311Z,34.55
2018-07-12T09:28:05.529Z,34.39
2018-07-12T09:29:13.501Z,34.25
2018-07-12T09:30:19.957Z,34.12
2018-07-12T09:31:26.339Z,34.01
2018-07-12T09:32:32.607Z,33.93
2018-07-12T09:33:39.021Z,34.02
2018-07-12T09:34:45.075Z,34.40
2018-07-12T09:35:52.418Z,34.62
2018-07-12T09:36:58.595Z,34.58
2018-07-12T09:38:13.923Z,34.46
2018-07-12T09:39:20.159Z,34.32
2018-07-12T09:40:26.642Z,34.19
2018-07-12T09:41:32.844Z,34.11
2018-07-12T09:42:38.988Z,34.09
2018-07-12T09:43:46.502Z,34.07
2018-07-12T09:44:52.626Z,34.07
2018-07-12T09:46:01.334Z,34.02
2018-07-12T09:47:07.652Z,33.95
2018-07-12T09:48:13.878Z,33.86
2018-07-12T09:49:21.115Z,33.92
2018-07-12T09:50:27.717Z,34.10
2018-07-12T09:51:34.680Z,34.32
2018-07-12T09:52:41.707Z,34.54
2018-07-12T09:53:48.808Z,34.71
2018-07-12T09:54:55.961Z,34.87
2018-07-12T09:56:02.319Z,35.02
2018-07-12T09:57:19.438Z,35.06
2018-07-12T09:58:30.242Z,35.05
2018-07-12T09:59:38.476Z,35.03
2018-07-12T10:00:55.568Z,35.02
2018-07-12T10:02:09.256Z,35.02
2018-07-12T10:03:21.666Z,35.05
2018-07-12T10:04:28.574Z,35.08
2018-07-12T10:06:38.160Z,35.13
2018-07-12T10:07:50.733Z,34.95
2018-07-12T10:09:02.311Z,34.92
2018-07-12T10:10:09.702Z,34.94
2018-07-12T10:11:22.885Z,34.93
2018-07-12T10:12:34.272Z,34.88
2018-07-12T10:13:47.093Z,34.87
2018-07-12T10:14:59.406Z,34.82
2018-07-12T10:16:13.448Z,34.71
2018-07-12T10:17:25.238Z,34.59
2018-07-12T10:18:33.101Z,34.52
2018-07-12T10:19:39.278Z,34.46
2018-07-12T10:20:48.619Z,34.37
2018-07-12T10:21:57.414Z,34.28
2018-07-12T10:23:03.620Z,34.21
2018-07-12T10:24:11.482Z,34.14
2018-07-12T10:25:17.717Z,34.06
2018-07-12T10:26:25.580Z,34.01
2018-07-12T10:27:32.410Z,33.96
2018-07-12T10:28:39.258Z,33.96
2018-07-12T10:29:46.668Z,33.98
2018-07-12T10:30:54.099Z,34.03
2018-07-12T10:32:00.317Z,34.07
2018-07-12T10:33:06.877Z,34.04
2018-07-12T10:34:13.902Z,34.02
2018-07-12T10:35:20.998Z,34.02
2018-07-12T10:36:27.228Z,33.98
2018-07-12T10:37:33.937Z,33.98
2018-07-12T10:38:42.037Z,33.94
2018-07-12T10:39:49.967Z,33.84
2018-07-12T10:40:56.916Z,33.71
2018-07-12T10:42:03.234Z,33.56
2018-07-12T10:43:10.433Z,33.43
2018-07-12T10:44:16.697Z,33.34
2018-07-12T10:45:24.420Z,33.27
2018-07-12T10:46:30.554Z,33.19
2018-07-12T10:47:37.545Z,33.15
2018-07-12T10:48:43.691Z,33.15
2018-07-12T10:49:52.503Z,33.15
2018-07-12T10:51:00.213Z,33.15
2018-07-12T10:52:07.507Z,33.15
2018-07-12T10:53:13.509Z,33.15
2018-07-12T10:54:20.169Z,33.14
2018-07-12T10:55:26.523Z,33.13
2018-07-12T10:56:33.665Z,33.10
2018-07-12T10:57:40.483Z,33.04
2018-07-12T10:58:48.627Z,32.96
2018-07-12T10:59:54.771Z,32.93
2018-07-12T11:01:00.933Z,32.92
2018-07-12T11:02:07.070Z,32.90
2018-07-12T11:03:14.179Z,32.89
2018-07-12T11:04:21.213Z,32.87
2018-07-12T11:05:28.287Z,32.85
2018-07-12T11:06:34.523Z,32.85
2018-07-12T11:07:40.799Z,32.90
2018-07-12T11:08:47.619Z,32.93
2018-07-12T11:09:54.629Z,32.97
2018-07-12T11:11:00.825Z,33.01
2018-07-12T11:12:07.039Z,33.03
2018-07-12T11:13:19.356Z,33.06
2018-07-12T11:14:27.922Z,33.10
2018-07-12T11:15:34.821Z,33.10
2018-07-12T11:16:41.050Z,33.11
2018-07-12T11:17:48.030Z,33.11
2018-07-12T11:18:54.345Z,33.13
2018-07-12T11:20:01.680Z,33.13
2018-07-12T11:21:07.844Z,33.13
2018-07-12T11:22:14.783Z,33.11
2018-07-12T11:23:21.790Z,33.11
2018-07-12T11:24:30.599Z,33.08
2018-07-12T11:25:37.769Z,33.02
2018-07-12T11:26:44.937Z,32.98
2018-07-12T11:27:52.485Z,32.96
2018-07-12T11:28:58.769Z,32.91
2018-07-12T11:30:04.855Z,32.89
2018-07-12T11:31:11.092Z,32.90
2018-07-12T11:32:20.811Z,32.94
2018-07-12T11:33:38.788Z,32.96
2018-07-12T11:34:47.145Z,32.94
2018-07-12T11:35:54.179Z,32.94
2018-07-12T11:37:00.500Z,32.92
2018-07-12T11:38:06.785Z,32.90
2018-07-12T11:39:13.797Z,32.90
2018-07-12T11:40:20.827Z,32.89
2018-07-12T11:41:27.025Z,32.92
2018-07-12T11:42:34.117Z,32.94
2018-07-12T11:43:40.335Z,32.95
2018-07-12T11:44:46.757Z,32.92
2018-07-12T11:45:54.888Z,32.86
2018-07-12T11:47:01.978Z,32.83
2018-07-12T11:48:09.623Z,32.80
2018-07-12T11:49:15.869Z,32.80
2018-07-12T11:50:22.344Z,32.79
2018-07-12T11:51:28.657Z,32.80
2018-07-12T11:52:34.982Z,32.84
2018-07-12T11:53:41.589Z,32.88
2018-07-12T11:54:48.281Z,32.95
2018-07-12T11:55:54.647Z,33.04
2018-07-12T11:57:00.933Z,33.09
2018-07-12T11:58:07.354Z,33.12
2018-07-12T11:59:13.603Z,33.14
2018-07-12T12:00:20.660Z,33.15
2018-07-12T12:01:27.628Z,33.15
2018-07-12T12:02:33.722Z,33.14
2018-07-12T12:03:39.821Z,33.13
2018-07-12T12:04:47.502Z,33.13
2018-07-12T12:05:54.301Z,33.10
2018-07-12T12:07:00.932Z,33.07
2018-07-12T12:08:08.118Z,33.05
2018-07-12T12:09:14.437Z,33.03
2018-07-12T12:10:20.545Z,33.02
2018-07-12T12:11:26.666Z,33.01
2018-07-12T12:12:33.704Z,32.98
2018-07-12T12:13:40.728Z,32.94
2018-07-12T12:14:48.791Z,32.91
2018-07-12T12:15:55.667Z,32.87
2018-07-12T12:17:01.824Z,32.85
2018-07-12T12:18:10.108Z,32.82
2018-07-12T12:19:17.078Z,32.80
2018-07-12T12:20:24.054Z,32.77
2018-07-12T12:21:30.346Z,32.78
2018-07-12T12:22:37.982Z,32.79
2018-07-12T12:23:44.100Z,32.80
2018-07-12T12:24:51.799Z,32.83
2018-07-12T12:25:58.881Z,32.87
2018-07-12T12:27:09.003Z,32.88
2018-07-12T12:28:17.591Z,32.88
2018-07-12T12:29:24.610Z,32.85
2018-07-12T12:30:31.507Z,32.83
2018-07-12T12:31:37.924Z,32.79
2018-07-12T12:32:43.890Z,32.75
2018-07-12T12:33:52.073Z,32.72
2018-07-12T12:34:59.121Z,32.70
2018-07-12T12:36:08.520Z,32.68
2018-07-12T12:37:14.911Z,32.69
2018-07-12T12:38:21.142Z,32.70
2018-07-12T12:39:29.051Z,32.72
2018-07-12T12:40:36.675Z,32.73
2018-07-12T12:41:43.079Z,32.73
2018-07-12T12:42:50.887Z,32.76
2018-07-12T12:43:58.656Z,32.79
2018-07-12T12:45:04.940Z,32.80
2018-07-12T12:46:12.524Z,32.81
2018-07-12T12:47:21.301Z,32.82
2018-07-12T12:48:27.550Z,32.82
2018-07-12T12:49:33.770Z,32.81
2018-07-12T12:50:39.896Z,32.84
2018-07-12T12:51:47.643Z,32.87
2018-07-12T12:52:55.194Z,32.91
2018-07-12T12:54:01.422Z,32.94
2018-07-12T12:55:08.508Z,32.95
2018-07-12T12:56:14.970Z,32.96
2018-07-12T12:57:23.580Z,32.98
2018-07-12T12:58:31.338Z,32.99
2018-07-12T12:59:38.589Z,32.97
2018-07-12T13:00:44.769Z,32.99
2018-07-12T13:01:51.452Z,33.00
2018-07-12T13:02:58.459Z,33.03
2018-07-12T13:04:05.454Z,33.03
2018-07-12T13:05:11.581Z,33.03
2018-07-12T13:06:19.864Z,33.02
2018-07-12T13:07:26.072Z,32.98
2018-07-12T13:08:34.826Z,32.97
2018-07-12T13:09:41.109Z,32.94
2018-07-12T13:10:48.805Z,32.90
2018-07-12T13:11:55.871Z,32.86
2018-07-12T13:13:02.635Z,32.82
2018-07-12T13:14:08.865Z,32.78
2018-07-12T13:15:16.793Z,32.74
2018-07-12T13:16:23.618Z,32.70
2018-07-12T13:17:29.906Z,32.69
2018-07-12T13:18:36.138Z,32.69
2018-07-12T13:19:46.567Z,32.69
2018-07-12T13:20:52.827Z,32.69
2018-07-12T13:21:58.913Z,32.68
2018-07-12T13:23:05.323Z,32.66
2018-07-12T13:24:11.617Z,32.64
2018-07-12T13:25:17.956Z,32.63
2018-07-12T13:26:24.286Z,32.63
2018-07-12T13:27:30.623Z,32.62
2018-07-12T13:28:36.881Z,32.61
2018-07-12T13:29:44.716Z,32.60
2018-07-12T13:30:51.272Z,32.60
2018-07-12T13:31:58.189Z,32.58
2018-07-12T13:33:04.590Z,32.59
2018-07-12T13:34:11.762Z,32.58
2018-07-12T13:35:21.733Z,32.58
2018-07-12T13:36:30.891Z,32.58
2018-07-12T13:37:37.185Z,32.59
2018-07-12T13:38:43.547Z,32.61
2018-07-12T13:39:51.768Z,32.61
2018-07-12T13:40:58.134Z,32.59
2018-07-12T13:42:04.434Z,32.52
2018-07-12T13:43:10.740Z,32.46
2018-07-12T13:44:26.884Z,32.40
2018-07-12T13:45:33.161Z,32.34
2018-07-12T13:46:41.126Z,32.30
2018-07-12T13:47:48.142Z,32.29
2018-07-12T13:48:55.065Z,32.26
2018-07-12T13:50:01.865Z,32.24
2018-07-12T13:51:10.876Z,32.22
2018-07-12T13:52:18.238Z,32.20
2018-07-12T13:53:25.897Z,32.19
2018-07-12T13:54:33.294Z,32.19
2018-07-12T13:55:39.601Z,32.19
2018-07-12T13:56:47.724Z,32.19
2018-07-12T13:57:54.041Z,32.19
2018-07-12T13:59:01.162Z,32.20
2018-07-12T14:00:08.380Z,32.20
2018-07-12T14:01:14.564Z,32.19
2018-07-12T14:02:20.762Z,32.17
2018-07-12T14:03:26.992Z,32.15
2018-07-12T14:04:33.416Z,32.14
2018-07-12T14:05:41.392Z,32.14
2018-07-12T14:06:48.432Z,32.13
2018-07-12T14:07:54.590Z,32.14
2018-07-12T14:09:02.313Z,32.13
2018-07-12T14:10:08.575Z,32.13
2018-07-12T14:11:15.482Z,32.13
2018-07-12T14:12:22.444Z,32.13
2018-07-12T14:13:29.933Z,32.13
2018-07-12T14:14:37.079Z,32.13
2018-07-12T14:15:44.153Z,32.15
2018-07-12T14:16:50.428Z,32.15
2018-07-12T14:17:58.788Z,32.17
2018-07-12T14:19:06.688Z,32.19
2018-07-12T14:20:13.278Z,32.20
2018-07-12T14:21:19.476Z,32.19
2018-07-12T14:22:26.139Z,32.19
2018-07-12T14:23:34.573Z,32.17
2018-07-12T14:24:41.475Z,32.16
2018-07-12T14:25:47.609Z,32.18
2018-07-12T14:26:53.693Z,32.17
2018-07-12T14:28:01.911Z,32.19
2018-07-12T14:29:08.245Z,32.18
2018-07-12T14:30:14.524Z,32.17
2018-07-12T14:31:20.808Z,32.19
2018-07-12T14:32:27.053Z,32.19
2018-07-12T14:33:33.242Z,32.19
2018-07-12T14:34:39.540Z,32.21
2018-07-12T14:35:46.490Z,32.23
2018-07-12T14:36:52.678Z,32.24
2018-07-12T14:37:59.686Z,32.25
2018-07-12T14:39:07.496Z,32.28
2018-07-12T14:40:13.932Z,32.28
2018-07-12T14:41:21.768Z,32.28
2018-07-12T14:42:29.208Z,32.27
2018-07-12T14:43:36.410Z,32.25
2018-07-12T14:44:42.736Z,32.23
2018-07-12T14:45:48.988Z,32.23
2018-07-12T14:46:57.689Z,32.23
2018-07-12T14:48:06.066Z,32.23
2018-07-12T14:49:14.760Z,32.22
2018-07-12T14:50:20.932Z,32.22
2018-07-12T14:51:27.324Z,32.21
2018-07-12T14:52:34.366Z,32.20
2018-07-12T14:53:41.275Z,32.21
2018-07-12T14:54:48.518Z,32.22
2018-07-12T14:55:54.795Z,32.21
2018-07-12T14:57:02.307Z,32.22
2018-07-12T14:58:09.879Z,32.22
2018-07-12T14:59:17.440Z,32.24
2018-07-12T15:00:24.047Z,32.24
2018-07-12T15:01:30.274Z,32.25
2018-07-12T15:02:36.569Z,32.26
2018-07-12T15:03:42.757Z,32.25
2018-07-12T15:04:48.966Z,32.24
2018-07-12T15:05:55.872Z,32.25
2018-07-12T15:07:03.797Z,32.24
2018-07-12T15:08:10.166Z,32.24
2018-07-12T15:09:16.487Z,32.24
2018-07-12T15:10:22.643Z,32.23
2018-07-12T15:11:29.418Z,32.24
2018-07-12T15:12:36.031Z,32.26
2018-07-12T15:13:42.346Z,32.24
2018-07-12T15:14:50.579Z,32.26
2018-07-12T15:15:56.791Z,32.26
2018-07-12T15:17:03.380Z,32.24
2018-07-12T15:18:10.626Z,32.23
2018-07-12T15:19:16.818Z,32.24
2018-07-12T15:20:23.820Z,32.24
2018-07-12T15:21:30.033Z,32.23
2018-07-12T15:22:37.345Z,32.24
2018-07-12T15:23:43.350Z,32.23
2018-07-12T15:24:49.553Z,32.23
2018-07-12T15:25:56.900Z,32.23
2018-07-12T15:27:03.391Z,32.22
2018-07-12T15:28:10.891Z,32.22
2018-07-12T15:29:17.080Z,32.21
2018-07-12T15:30:29.821Z,32.20
2018-07-12T15:31:36.123Z,32.19
2018-07-12T15:32:42.322Z,32.17
2018-07-12T15:33:48.540Z,32.17
2018-07-12T15:34:56.918Z,32.18
2018-07-12T15:36:04.608Z,32.18
2018-07-12T15:37:12.248Z,32.17
2018-07-12T15:38:18.556Z,32.19
2018-07-12T15:39:24.790Z,32.19
2018-07-12T15:40:30.962Z,32.19
2018-07-12T15:41:38.542Z,32.18
2018-07-12T15:42:46.787Z,32.16
2018-07-12T15:43:53.276Z,32.16
2018-07-12T15:44:59.346Z,32.15
2018-07-12T15:46:06.914Z,32.13
2018-07-12T15:47:13.097Z,32.13
2018-07-12T15:48:20.501Z,32.13
2018-07-12T15:49:28.540Z,32.13
2018-07-12T15:50:34.681Z,32.14
2018-07-12T15:51:40.952Z,32.14
2018-07-12T15:52:47.065Z,32.13
2018-07-12T15:53:53.583Z,32.12
2018-07-12T15:54:59.852Z,32.11
2018-07-12T15:56:06.200Z,32.10
2018-07-12T15:57:12.318Z,32.10
2018-07-12T15:58:18.590Z,32.08
2018-07-12T15:59:26.254Z,32.08
2018-07-12T16:00:34.694Z,32.07
2018-07-12T16:01:41.490Z,32.07
2018-07-12T16:02:48.525Z,32.06
2018-07-12T16:03:54.839Z,32.06
2018-07-12T16:05:03.838Z,32.06
2018-07-12T16:06:09.940Z,32.06
2018-07-12T16:07:16.298Z,32.07
2018-07-12T16:08:22.346Z,32.07
2018-07-12T16:09:29.273Z,32.09
2018-07-12T16:10:35.448Z,32.09
2018-07-12T16:11:43.617Z,32.08
2018-07-12T16:12:49.926Z,32.07
2018-07-12T16:13:56.879Z,32.05
2018-07-12T16:15:03.045Z,32.05
2018-07-12T16:16:09.070Z,32.04
2018-07-12T16:17:15.212Z,32.04
2018-07-12T16:18:21.380Z,32.04
2018-07-12T16:19:27.630Z,32.02
2018-07-12T16:20:36.351Z,32.02
2018-07-12T16:21:42.832Z,32.02
2018-07-12T16:22:49.251Z,32.02
2018-07-12T16:23:55.510Z,32.01
2018-07-12T16:25:01.951Z,32.03
2018-07-12T16:26:08.482Z,32.02
2018-07-12T16:27:15.596Z,32.01
2018-07-12T16:28:22.406Z,32.02
2018-07-12T16:29:28.905Z,32.01
2018-07-12T16:30:36.760Z,32.01
2018-07-12T16:31:43.795Z,32.03
2018-07-12T16:32:49.938Z,32.03
2018-07-12T16:33:57.092Z,32.02
2018-07-12T16:35:04.112Z,32.02
2018-07-12T16:36:10.954Z,32.02
2018-07-12T16:37:17.730Z,32.03
2018-07-12T16:38:26.018Z,32.02
2018-07-12T16:39:33.198Z,32.03
2018-07-12T16:40:39.732Z,32.01
2018-07-12T16:41:49.940Z,32.01
2018-07-12T16:42:57.899Z,32.00
2018-07-12T16:44:05.607Z,31.99
2018-07-12T16:45:14.439Z,31.97
2018-07-12T16:46:21.478Z,31.96
2018-07-12T16:47:30.418Z,31.95
2018-07-12T16:48:38.273Z,31.95
2018-07-12T16:49:45.021Z,31.95
2018-07-12T16:50:51.633Z,31.94
2018-07-12T16:51:58.066Z,31.94
2018-07-12T16:53:04.426Z,31.94
2018-07-12T16:54:13.078Z,31.94
2018-07-12T16:55:22.204Z,31.93
2018-07-12T16:56:30.000Z,31.93
2018-07-12T16:57:37.536Z,31.92
2018-07-12T16:58:43.751Z,31.91
2018-07-12T16:59:51.296Z,31.89
2018-07-12T17:00:57.865Z,31.88
2018-07-12T17:02:04.420Z,31.87
2018-07-12T17:03:10.870Z,31.86
2018-07-12T17:04:17.342Z,31.83
2018-07-12T17:05:25.291Z,31.81
2018-07-12T17:06:32.945Z,31.81
2018-07-12T17:07:39.449Z,31.81
2018-07-12T17:08:47.676Z,31.80
2018-07-12T17:09:56.240Z,31.77
2018-07-12T17:11:05.145Z,31.79
2018-07-12T17:12:11.653Z,31.76
2018-07-12T17:13:22.269Z,31.73
2018-07-12T17:14:29.954Z,31.73
2018-07-12T17:15:36.269Z,31.69
2018-07-12T17:16:42.891Z,31.68
2018-07-12T17:17:51.109Z,31.66
2018-07-12T17:18:59.206Z,31.65
2018-07-12T17:20:05.491Z,31.64
2018-07-12T17:21:11.729Z,31.62
2018-07-12T17:22:18.029Z,31.60
2018-07-12T17:23:24.087Z,31.59
2018-07-12T17:24:30.307Z,31.56
2018-07-12T17:25:36.492Z,31.55
2018-07-12T17:26:44.270Z,31.52
2018-07-12T17:27:58.928Z,31.50
2018-07-12T17:29:05.472Z,31.48
2018-07-12T17:30:12.211Z,31.44
2018-07-12T17:31:18.363Z,31.44
2018-07-12T17:32:24.638Z,31.42
2018-07-12T17:33:30.703Z,31.41
2018-07-12T17:34:37.181Z,31.41
2018-07-12T17:35:43.912Z,31.39
2018-07-12T17:36:50.302Z,31.40
2018-07-12T17:37:56.972Z,31.38
2018-07-12T17:39:03.404Z,31.38
2018-07-12T17:40:09.760Z,31.37
2018-07-12T17:41:16.194Z,31.36
2018-07-12T17:42:22.564Z,31.35
2018-07-12T17:43:31.102Z,31.34
2018-07-12T17:44:37.796Z,31.33
2018-07-12T17:45:44.254Z,31.32
2018-07-12T17:46:51.042Z,31.30
2018-07-12T17:47:58.938Z,31.30
2018-07-12T17:49:05.082Z,31.29
2018-07-12T17:50:11.671Z,31.29
2018-07-12T17:51:28.008Z,31.27
2018-07-12T17:52:34.998Z,31.24
2018-07-12T17:53:42.192Z,31.23
2018-07-12T17:54:55.396Z,31.21
2018-07-12T17:56:02.452Z,31.20
2018-07-12T17:57:12.089Z,31.18
2018-07-12T17:58:18.397Z,31.18
2018-07-12T17:59:28.236Z,31.16
2018-07-12T18:00:35.773Z,31.15
2018-07-12T18:01:45.316Z,31.13
2018-07-12T18:02:53.590Z,31.12
2018-07-12T18:04:00.274Z,31.10
2018-07-12T18:05:08.078Z,31.07
2018-07-12T18:06:16.563Z,31.05
2018-07-12T18:07:23.876Z,31.03
2018-07-12T18:08:30.275Z,31.01
2018-07-12T18:09:36.663Z,31.00
2018-07-12T18:10:43.222Z,30.97
2018-07-12T18:11:50.563Z,30.95
2018-07-12T18:12:56.917Z,30.95
2018-07-12T18:14:03.083Z,30.93
2018-07-12T18:15:09.292Z,30.91
2018-07-12T18:16:17.977Z,30.89
2018-07-12T18:17:25.143Z,30.89
2018-07-12T18:18:33.097Z,30.86
2018-07-12T18:19:39.368Z,30.85
2018-07-12T18:20:46.181Z,30.82
2018-07-12T18:21:52.524Z,30.80
2018-07-12T18:22:58.740Z,30.79
2018-07-12T18:24:04.943Z,30.77
2018-07-12T18:25:10.969Z,30.75
2018-07-12T18:26:17.048Z,30.74
2018-07-12T18:27:23.393Z,30.72
2018-07-12T18:28:29.873Z,30.72
2018-07-12T18:29:38.017Z,30.71
2018-07-12T18:30:44.436Z,30.68
2018-07-12T18:31:51.576Z,30.66
2018-07-12T18:32:57.838Z,30.63
2018-07-12T18:34:05.723Z,30.62
2018-07-12T18:35:11.940Z,30.60
2018-07-12T18:36:18.294Z,30.59
2018-07-12T18:37:24.633Z,30.57
2018-07-12T18:38:32.477Z,30.55
2018-07-12T18:39:38.831Z,30.53
2018-07-12T18:40:46.639Z,30.50
2018-07-12T18:41:54.008Z,30.48
2018-07-12T18:43:01.437Z,30.46
2018-07-12T18:44:08.641Z,30.45
2018-07-12T18:45:14.927Z,30.41
2018-07-12T18:46:21.754Z,30.41
2018-07-12T18:47:27.942Z,30.40
2018-07-12T18:48:35.236Z,30.37
2018-07-12T18:49:41.386Z,30.35
2018-07-12T18:50:47.761Z,30.32
2018-07-12T18:51:54.816Z,30.30
2018-07-12T18:53:02.012Z,30.28
2018-07-12T18:54:08.283Z,30.26
2018-07-12T18:55:15.458Z,30.25
2018-07-12T18:56:22.826Z,30.23
2018-07-12T18:57:29.082Z,30.20
2018-07-12T18:58:35.393Z,30.17
2018-07-12T18:59:42.904Z,30.15
2018-07-12T19:00:49.286Z,30.12
2018-07-12T19:01:55.577Z,30.10
2018-07-12T19:03:01.859Z,30.09
2018-07-12T19:04:11.475Z,30.08
2018-07-12T19:05:18.038Z,30.06
2018-07-12T19:06:25.458Z,30.03
2018-07-12T19:07:32.698Z,30.01
2018-07-12T19:08:39.771Z,29.98
2018-07-12T19:09:46.278Z,29.90
2018-07-12T19:10:52.596Z,29.91
2018-07-12T19:11:58.952Z,29.90
2018-07-12T19:13:05.509Z,29.88
2018-07-12T19:14:13.373Z,29.86
2018-07-12T19:15:21.602Z,29.85
2018-07-12T19:16:27.898Z,29.82
2018-07-12T19:17:34.883Z,29.80
2018-07-12T19:18:42.843Z,29.78
2018-07-12T19:20:00.627Z,29.76
2018-07-12T19:21:13.385Z,29.72
2018-07-12T19:22:19.830Z,29.68
2018-07-12T19:23:26.907Z,29.63
2018-07-12T19:24:33.866Z,29.62
2018-07-12T19:25:40.384Z,29.63
2018-07-12T19:26:48.216Z,29.61
2018-07-12T19:27:55.361Z,29.58
2018-07-12T19:29:02.152Z,29.57
2018-07-12T19:30:09.478Z,29.54
2018-07-12T19:31:16.960Z,29.51
2018-07-12T19:32:28.130Z,29.48
2018-07-12T19:33:34.757Z,29.48
2018-07-12T19:34:41.941Z,29.41
2018-07-12T19:35:48.373Z,29.43
2018-07-12T19:36:55.711Z,29.42
2018-07-12T19:38:02.603Z,29.39
2018-07-12T19:39:10.269Z,29.37
2018-07-12T19:40:17.336Z,29.35
2018-07-12T19:41:24.407Z,29.32
2018-07-12T19:42:32.688Z,29.30
2018-07-12T19:43:40.354Z,29.28
2018-07-12T19:44:47.177Z,29.25
2018-07-12T19:45:56.408Z,29.24
2018-07-12T19:47:03.548Z,29.22
2018-07-12T19:48:10.636Z,29.18
2018-07-12T19:49:16.974Z,29.17
2018-07-12T19:50:25.215Z,29.15
2018-07-12T19:51:32.480Z,29.14
2018-07-12T19:52:39.453Z,29.11
2018-07-12T19:53:46.090Z,29.11
2018-07-12T19:54:53.936Z,29.09
2018-07-12T19:56:00.051Z,29.07